METAR AND TAF INFORMATION
METAR FOR LEBB
ADDS - METARS form results

(2243 UTC 26 April 2018)
Data provider http://aviationweather.gov/adds/metars/
 
METAR text: LEBB 262230Z AUTO 11002KT 9999 NCD 10/08 Q1015
Conditions at: LEBB (BILBAO/SONDICA , ES) observed 2230 UTC 26 April 2018
Temperature: 10.0°C (50°F)
Dewpoint: 8.0°C (46°F) [RH = 87%]
Pressure (altimeter): 29.97 inches Hg (1015.0 mb)
Winds: from the ESE (110 degrees) at 2 MPH (2 knots; 1.0 m/s)
Visibility: 6 or more miles (10+ km)
Ceiling: at least 12,000 feet AGL
Clouds: sky clear below 12,000 feet AGL
Weather: no significant weather observed at this time

METAR text: LEBB 262200Z AUTO 11002KT 9999 NCD 10/09 Q1016
Conditions at: LEBB (BILBAO/SONDICA , ES) observed 2200 UTC 26 April 2018
Temperature: 10.0°C (50°F)
Dewpoint: 9.0°C (48°F) [RH = 93%]
Pressure (altimeter): 30.00 inches Hg (1016.0 mb)
Winds: from the ESE (110 degrees) at 2 MPH (2 knots; 1.0 m/s)
Visibility: 6 or more miles (10+ km)
Ceiling: at least 12,000 feet AGL
Clouds: sky clear below 12,000 feet AGL
Weather: no significant weather observed at this time

Forecast for: LEBB (BILBAO/SONDICA , ES)
Text: TAF LEBB 261700Z 2618/2718 08008KT 9999 SCT025 BKN050 TX16/2715Z TN09/2704Z
Forecast period: 1800 to 2100 UTC 26 April 2018
Forecast type: FROM: standard forecast or significant change
Winds: from the E (80 degrees) at 9 MPH (8 knots; 4.2 m/s)
Visibility: 6 or more miles (10+ km)
Ceiling: 5000 feet AGL
Clouds: scattered clouds at 2500 feet AGL
broken clouds at 5000 feet AGL
Weather: no significant weather forecast for this period
Forecast for: LEBB (BILBAO/SONDICA , ES)
Text: TAF LEBB 261700Z 2618/2718 08008KT 9999 SCT025 BKN050 TX16/2715Z TN09/2704Z
Forecast period: 1800 to 2100 UTC 26 April 2018
Forecast type: FROM: standard forecast or significant change
Winds: from the E (80 degrees) at 9 MPH (8 knots; 4.2 m/s)
Visibility: 6 or more miles (10+ km)
Ceiling: 5000 feet AGL
Clouds: scattered clouds at 2500 feet AGL
broken clouds at 5000 feet AGL
Weather: no significant weather forecast for this period
Forecast for: LEBB (BILBAO/SONDICA , ES)
Text: TAF LEBB 261700Z 2618/2718 08008KT 9999 SCT025 BKN050 TX16/2715Z TN09/2704Z
Forecast period: 2100 UTC 26 April 2018 to 0600 UTC 27 April 2018
Forecast type: BECOMING: Conditions expected to become as follows by 0000 UTC 27 April 2018
Winds: from the SE (140 degrees) at 7 MPH (6 knots; 3.1 m/s)
Visibility: 6 or more miles (10+ km)
Ceiling: 5000 feet AGL
Clouds: scattered clouds at 2500 feet AGL
broken clouds at 5000 feet AGL
Weather: no significant weather forecast for this period
Forecast for: LEBB (BILBAO/SONDICA , ES)
Text: TAF LEBB 261700Z 2618/2718 08008KT 9999 SCT025 BKN050 TX16/2715Z TN09/2704Z
Forecast period: 2100 UTC 26 April 2018 to 0600 UTC 27 April 2018
Forecast type: BECOMING: Conditions expected to become as follows by 0000 UTC 27 April 2018
Winds: from the SE (140 degrees) at 7 MPH (6 knots; 3.1 m/s)
Visibility: 6 or more miles (10+ km)
Ceiling: 5000 feet AGL
Clouds: scattered clouds at 2500 feet AGL
broken clouds at 5000 feet AGL
Weather: no significant weather forecast for this period
Forecast for: LEBB (BILBAO/SONDICA , ES)
Text: TAF LEBB 261700Z 2618/2718 08008KT 9999 SCT025 BKN050 TX16/2715Z TN09/2704Z
Forecast period: 0600 to 1800 UTC 27 April 2018
Forecast type: BECOMING: Conditions expected to become as follows by 0900 UTC 27 April 2018
Winds: from the WNW (300 degrees) at 12 MPH (10 knots; 5.2 m/s)
Visibility: 6 or more miles (10+ km)
Ceiling: 5000 feet AGL
Clouds: scattered clouds at 2500 feet AGL
broken clouds at 5000 feet AGL
Weather: no significant weather forecast for this period
Forecast for: LEBB (BILBAO/SONDICA , ES)
Text: TAF LEBB 261700Z 2618/2718 08008KT 9999 SCT025 BKN050 TX16/2715Z TN09/2704Z
Forecast period: 0600 to 1800 UTC 27 April 2018
Forecast type: BECOMING: Conditions expected to become as follows by 0900 UTC 27 April 2018
Winds: from the WNW (300 degrees) at 12 MPH (10 knots; 5.2 m/s)
Visibility: 6 or more miles (10+ km)
Ceiling: 5000 feet AGL
Clouds: scattered clouds at 2500 feet AGL
broken clouds at 5000 feet AGL
Weather: no significant weather forecast for this period
Forecast for: LEBB (BILBAO/SONDICA , ES)
Text: TAF LEBB 261700Z 2618/2718 08008KT 9999 SCT025 BKN050 TX16/2715Z TN09/2704Z
Forecast period: 0900 to 1500 UTC 27 April 2018
Forecast type: TEMPORARY: The following changes expected for less than half the time period
Winds: from the WNW (300 degrees) at 17 MPH (15 knots; 7.8 m/s)
gusting to 29 MPH (25 knots; 13.0 m/s)
Weather: no significant weather forecast for this period
Forecast for: LEBB (BILBAO/SONDICA , ES)
Text: TAF LEBB 261700Z 2618/2718 08008KT 9999 SCT025 BKN050 TX16/2715Z TN09/2704Z
Forecast period: 0900 to 1500 UTC 27 April 2018
Forecast type: TEMPORARY: The following changes expected for less than half the time period
Winds: from the WNW (300 degrees) at 17 MPH (15 knots; 7.8 m/s)
gusting to 29 MPH (25 knots; 13.0 m/s)
Weather: no significant weather forecast for this period

 AIRPORT MAP

 RUNWAY INFORMATION
Runway 10 Runway length 6562 ft Runway width 148 ft
Runway elevation 116 ft Runway displaced threshold 0 ft Runway heading 97
Runway 28 Runway length 6562 ft Runway width 148 ft
Runway elevation 129 ft Runway displaced threshold 0 ft Runway heading 277
Runway 12 Runway length 8530 ft Runway width 148 ft
Runway elevation 119 ft Runway displaced threshold 0 ft Runway heading 117
Runway 30 Runway length 8530 ft Runway width 148 ft
Runway elevation 128 ft Runway displaced threshold 1509 ft Runway heading 297

 AIRPORT FREQUENCIES
Type APP Name APP Frequency 120.7 MHZ
Type ATIS Name ATIS Frequency 118.825 MHZ
Type GND Name GND Frequency 121.7 MHZ
Type TWR Name TWR Frequency 118.5 MHZ

 AIRPORT NEAR NAVIGATION AIDS
Type VOR-DME Name Bilbao Frequency 115900 KHZ



Powered by Virtual Airlines Manager [v2.6.2]